Time;durP1;ratioP1;P1;durP2;ratioP2;P2;SDS_P1;SDS_P2;PMS_P1;PMS_P2;Temp;Humidity;BMP_temperature;BMP_pressure;BME280_temperature;BME280_humidity;BME280_pressure;Samples;Min_cycle;Max_cycle;Signal;HPM_P1;HPM_P2
2021/12/16 16:52:09;;;;;;;21.33;11.53;;;;;;;3.68;100.00;100535.94;5129455;27;20176;-57
2021/12/16 16:54:41;;;;;;;23.37;11.97;;;;;;;3.68;100.00;100535.94;5109128;28;20280;-58
2021/12/16 16:57:11;;;;;;;24.57;11.73;;;;;;;3.68;100.00;100538.59;5108913;28;20763;-58
2021/12/16 16:59:40;;;;;;;26.40;14.07;;;;;;;3.74;100.00;100548.69;5087869;28;20750;-58
2021/12/16 17:02:21;;;;;;;32.43;16.07;;;;;;;3.74;100.00;100553.97;5088365;28;20271;-59
2021/12/16 17:04:54;;;;;;;30.97;14.53;;;;;;;3.74;100.00;100561.91;5085773;28;20261;-58
2021/12/16 17:07:19;;;;;;;31.20;15.27;;;;;;;3.76;100.00;100558.19;5088321;28;20607;-57
2021/12/16 17:09:46;;;;;;;26.13;13.03;;;;;;;3.79;100.00;100552.66;5088403;28;20268;-58
2021/12/16 17:12:13;;;;;;;26.53;13.30;;;;;;;3.82;100.00;100547.13;5088640;28;20032;-57
2021/12/16 17:14:52;;;;;;;26.87;13.17;;;;;;;3.85;100.00;100557.47;5088309;28;20352;-57
2021/12/16 17:17:23;;;;;;;23.30;11.77;;;;;;;3.87;100.00;100565.28;5088428;28;20287;-58
2021/12/16 17:20:01;;;;;;;21.27;10.83;;;;;;;3.91;100.00;100564.94;5087090;28;20699;-60
2021/12/16 17:22:38;;;;;;;22.27;12.20;;;;;;;3.92;100.00;100563.13;5070169;28;20312;-60
2021/12/16 17:25:06;;;;;;;21.37;11.83;;;;;;;3.91;100.00;100562.28;5070711;28;20451;-61
2021/12/16 17:27:36;;;;;;;20.97;11.73;;;;;;;4.01;100.00;100578.28;5070507;28;20330;-60
2021/12/16 17:30:11;;;;;;;18.73;10.30;;;;;;;4.05;100.00;100563.00;5086903;28;20291;-60
2021/12/16 17:32:41;;;;;;;21.47;11.50;;;;;;;4.06;100.00;100568.16;5088060;28;20359;-60
2021/12/16 17:35:21;;;;;;;19.90;10.47;;;;;;;4.05;100.00;100569.13;5086876;28;20273;-60
2021/12/16 17:38:11;;;;;;;22.63;12.03;;;;;;;4.06;100.00;100568.16;5087979;28;20418;-60
2021/12/16 17:40:44;;;;;;;22.07;11.67;;;;;;;4.06;100.00;100565.53;5087884;28;20382;-61
2021/12/16 17:43:20;;;;;;;22.17;12.18;;;;;;;4.03;100.00;100560.50;5069659;28;20788;-60
2021/12/16 17:45:52;;;;;;;24.67;13.40;;;;;;;3.96;100.00;100568.03;5087744;28;20031;-61
2021/12/16 17:48:33;;;;;;;27.57;14.50;;;;;;;3.96;100.00;100570.69;5086410;28;20588;-62
2021/12/16 17:51:03;;;;;;;28.37;15.37;;;;;;;3.94;100.00;100566.47;5086051;28;20296;-59
2021/12/16 17:53:29;;;;;;;27.43;14.40;;;;;;;4.00;100.00;100564.22;5087359;28;20293;-59
2021/12/16 17:55:58;;;;;;;27.97;15.13;;;;;;;4.02;100.00;100564.09;5087467;28;20781;-59
2021/12/16 17:58:29;;;;;;;30.43;17.13;;;;;;;3.98;100.00;100571.41;5087240;28;20315;-59
2021/12/16 18:01:04;;;;;;;33.33;16.43;;;;;;;4.03;100.00;100573.72;5069294;28;20686;-60
2021/12/16 18:03:34;;;;;;;31.87;16.70;;;;;;;3.97;100.00;100588.25;5071960;28;20276;-59
2021/12/16 18:06:03;;;;;;;33.80;17.17;;;;;;;4.02;100.00;100581.75;5073635;28;20265;-58
2021/12/16 18:08:41;;;;;;;33.93;17.47;;;;;;;4.10;100.00;100582.00;5073529;28;20288;-58
2021/12/16 18:11:21;;;;;;;35.50;18.73;;;;;;;4.12;100.00;100569.50;5073627;28;20373;-59
2021/12/16 18:13:54;;;;;;;38.53;20.37;;;;;;;4.10;100.00;100572.25;5073683;28;20304;-59
2021/12/16 18:16:24;;;;;;;37.30;16.93;;;;;;;4.19;100.00;100571.53;5055653;28;20348;-59
2021/12/16 18:18:51;;;;;;;39.20;18.07;;;;;;;4.14;100.00;100568.44;5073567;28;20615;-59
2021/12/16 18:21:17;;;;;;;36.73;19.73;;;;;;;4.12;100.00;100567.69;5055749;28;20824;-59
2021/12/16 18:23:45;;;;;;;38.13;18.60;;;;;;;4.18;100.00;100574.28;5072306;28;20625;-59
2021/12/16 18:26:12;;;;;;;41.80;22.40;;;;;;;4.11;100.00;100568.66;5073232;28;20297;-59
2021/12/16 18:28:44;;;;;;;37.87;19.47;;;;;;;4.06;100.00;100565.53;5073516;28;20296;-60
2021/12/16 18:31:10;;;;;;;38.22;19.60;;;;;;;4.10;100.00;100568.78;5073334;28;20323;-59
2021/12/16 18:33:40;;;;;;;38.07;17.57;;;;;;;4.09;100.00;100570.56;5073475;28;20020;-59
2021/12/16 18:36:16;;;;;;;35.93;17.47;;;;;;;4.14;100.00;100568.44;5073271;28;20401;-59
2021/12/16 18:38:57;;;;;;;37.30;18.07;;;;;;;4.19;100.00;100560.09;5073314;28;20264;-58
2021/12/16 18:41:31;;;;;;;34.97;17.30;;;;;;;4.26;100.00;100578.03;5073112;28;20266;-59
2021/12/16 18:43:57;;;;;;;36.67;18.43;;;;;;;4.24;100.00;100571.19;5073241;28;20360;-59
2021/12/16 18:46:25;;;;;;;37.30;18.57;;;;;;;4.23;100.00;100565.03;5072985;28;20353;-59
2021/12/16 18:52:10;;;;;;;37.13;17.80;;;;;;;4.27;100.00;100569.13;5072742;28;20293;-59
2021/12/16 18:54:29;;;;;;;35.15;17.05;;;;;;;4.30;100.00;100574.16;5069744;28;20037;-59
2021/12/16 18:56:58;;;;;;;33.90;15.80;;;;;;;4.23;100.00;100569.50;5072788;28;20037;-59
2021/12/16 18:59:24;;;;;;;32.20;15.67;;;;;;;4.30;100.00;100566.22;5072771;28;20261;-59
2021/12/16 19:01:56;;;;;;;31.50;15.60;;;;;;;4.34;100.00;100575.63;5072633;28;20730;-59
2021/12/16 19:04:26;;;;;;;33.90;16.58;;;;;;;4.38;100.00;100579.69;5072772;28;20105;-60
2021/12/16 19:06:54;;;;;;;32.17;15.77;;;;;;;4.44;100.00;100577.53;5072736;28;20045;-60
2021/12/16 19:09:21;;;;;;;32.20;16.50;;;;;;;4.41;100.00;100596.28;5071082;28;20292;-60
2021/12/16 19:11:52;;;;;;;29.30;15.50;;;;;;;4.38;100.00;100597.41;5056828;28;20278;-59
2021/12/16 19:14:22;;;;;;;29.93;14.33;;;;;;;4.42;100.00;100593.53;5063996;28;20273;-60
2021/12/16 19:16:49;;;;;;;32.73;15.97;;;;;;;4.36;100.00;100599.31;5063119;28;20320;-59
2021/12/16 19:19:14;;;;;;;33.30;16.50;;;;;;;4.33;100.00;100604.84;5061393;28;20257;-58
2021/12/16 19:21:40;;;;;;;31.63;16.60;;;;;;;4.30;100.00;100611.22;5069048;28;20272;-58
2021/12/16 19:24:08;;;;;;;37.80;17.33;;;;;;;4.37;100.00;100606.31;5071489;28;20038;-56
2021/12/16 19:26:35;;;;;;;31.07;17.17;;;;;;;4.34;100.00;100606.53;5072454;28;20026;-57
2021/12/16 19:29:02;;;;;;;31.03;15.73;;;;;;;4.54;100.00;100612.88;5072411;28;20268;-58
2021/12/16 19:31:31;;;;;;;29.63;15.47;;;;;;;4.53;100.00;100620.00;5072226;28;20304;-57
2021/12/16 19:34:01;;;;;;;30.77;14.90;;;;;;;4.45;100.00;100619.75;5072265;28;20276;-60
2021/12/16 19:36:27;;;;;;;27.97;14.53;;;;;;;4.41;100.00;100618.31;5072073;28;21061;-59
2021/12/16 19:38:52;;;;;;;27.90;14.27;;;;;;;4.39;100.00;100614.94;5072098;28;20277;-59
2021/12/16 19:41:22;;;;;;;34.57;16.17;;;;;;;4.38;100.00;100618.56;5072115;28;20026;-61
2021/12/16 19:43:50;;;;;;;31.40;15.50;;;;;;;4.46;100.00;100620.59;5072000;28;20544;-60
2021/12/16 19:46:16;;;;;;;32.87;15.83;;;;;;;4.46;100.00;100615.31;5071797;28;20258;-61
2021/12/16 19:48:43;;;;;;;32.27;16.00;;;;;;;4.46;100.00;100612.66;5071912;28;20265;-61
2021/12/16 19:51:12;;;;;;;33.50;16.47;;;;;;;4.45;100.00;100619.75;5071508;28;20388;-61
2021/12/16 19:53:38;;;;;;;33.63;17.67;;;;;;;4.53;100.00;100622.63;5071780;28;20340;-61
2021/12/16 19:56:06;;;;;;;40.10;17.33;;;;;;;4.44;100.00;100617.22;5064395;28;20691;-61
2021/12/16 19:58:32;;;;;;;37.97;17.83;;;;;;;4.42;100.00;100621.81;5071516;28;20028;-63
2021/12/16 20:01:02;;;;;;;37.03;17.50;;;;;;;4.43;100.00;100626.13;5053701;28;20272;-63
2021/12/16 20:03:30;;;;;;;43.90;18.07;;;;;;;4.52;100.00;100628.88;5071529;28;20296;-62
2021/12/16 20:05:59;;;;;;;40.73;18.87;;;;;;;4.54;100.00;100624.31;5071474;28;20280;-62
2021/12/16 20:08:26;;;;;;;37.27;17.83;;;;;;;4.48;100.00;100637.22;5071375;28;20273;-62
2021/12/16 20:10:55;;;;;;;36.17;17.60;;;;;;;4.52;100.00;100626.25;5070302;28;20348;-62
2021/12/16 20:13:22;;;;;;;38.70;18.37;;;;;;;4.46;100.00;100634.69;5071358;28;20272;-62
2021/12/16 20:15:52;;;;;;;39.63;18.30;;;;;;;4.50;100.00;100638.75;5064123;28;20649;-62
2021/12/16 20:18:21;;;;;;;38.80;17.93;;;;;;;4.46;100.00;100639.97;5050194;28;20033;-61
2021/12/16 20:20:54;;;;;;;41.90;18.73;;;;;;;4.49;100.00;100628.31;5051486;28;20033;-61
2021/12/16 20:23:20;;;;;;;40.33;19.17;;;;;;;4.44;100.00;100633.13;5050204;28;20833;-61
2021/12/16 20:25:51;;;;;;;39.23;18.43;;;;;;;4.47;100.00;100635.53;5050965;28;20337;-62
2021/12/16 20:28:42;;;;;;;39.00;18.40;;;;;;;4.46;100.00;100639.13;5051317;28;20032;-61
2021/12/16 20:31:21;;;;;;;39.03;18.37;;;;;;;4.60;100.00;100638.91;5051019;28;20331;-61
2021/12/16 20:33:54;;;;;;;37.57;17.83;;;;;;;4.47;100.00;100641.66;5051031;28;20373;-61
2021/12/16 20:36:25;;;;;;;34.95;16.98;;;;;;;4.60;100.00;100646.84;5051046;28;20315;-62
2021/12/16 20:38:56;;;;;;;36.13;17.13;;;;;;;4.51;100.00;100639.59;5051097;28;20043;-61
2021/12/16 20:41:28;;;;;;;35.00;16.17;;;;;;;4.64;100.00;100641.16;5033505;28;20361;-61
2021/12/16 20:43:59;;;;;;;30.57;16.30;;;;;;;4.71;100.00;100649.47;5049935;28;20293;-62
2021/12/16 20:46:29;;;;;;;32.23;15.47;;;;;;;4.77;100.00;100641.03;5050913;28;20348;-62
2021/12/16 20:48:58;;;;;;;29.80;15.10;;;;;;;4.76;100.00;100644.63;5051037;28;20262;-62
2021/12/16 20:51:27;;;;;;;35.23;15.63;;;;;;;4.80;100.00;100640.78;5050739;28;20298;-62
2021/12/16 20:53:53;;;;;;;32.50;15.93;;;;;;;4.83;100.00;100637.06;5051134;28;20305;-63
2021/12/16 20:56:19;;;;;;;32.03;16.07;;;;;;;4.76;100.00;100639.34;5062908;28;20274;-62
2021/12/16 20:58:55;;;;;;;30.67;15.67;;;;;;;4.73;100.00;100635.13;5051135;28;20639;-62
2021/12/16 21:01:25;;;;;;;29.80;15.27;;;;;;;4.64;100.00;100635.88;5051156;28;20033;-62
2021/12/16 21:03:51;;;;;;;31.77;14.83;;;;;;;4.75;100.00;100632.34;5051036;28;20272;-62
2021/12/16 21:11:27;;;;;;;31.50;15.50;;;;;;;4.59;100.00;100647.78;4751490;22;20311;-65
2021/12/16 21:13:53;;;;;;;31.70;16.60;;;;;;;4.65;100.00;100655.25;4974799;28;20279;-64
2021/12/16 21:16:19;;;;;;;31.67;16.13;;;;;;;4.76;100.00;100664.97;4991614;28;20057;-64
2021/12/16 21:18:44;;;;;;;30.43;15.53;;;;;;;4.85;100.00;100666.88;4991823;28;20110;-64
2021/12/16 21:21:11;;;;;;;32.87;16.27;;;;;;;4.84;100.00;100663.44;4991548;28;20022;-64
2021/12/16 21:23:37;;;;;;;31.67;15.83;;;;;;;4.82;100.00;100659.22;4991566;28;20033;-64
2021/12/16 21:26:04;;;;;;;33.50;16.53;;;;;;;4.87;100.00;100657.00;4991575;28;20268;-65
2021/12/16 21:28:30;;;;;;;30.00;15.00;;;;;;;4.82;100.00;100654.75;4991764;28;20026;-65
